Burwell, NE

3:03 PM CDT on August 21, 2014 (GMT -0500)
The O'Neill Municipal-Baker | Change Station
CLOSE
Current Station
Airport
Location: O'Neill,
Elevation: 2031 ft
Nearby Weather Stations

Elev 2031 ft 42.47 °N, 98.69 °W | Updated 8 minutes ago

Clear
Clear
86 °F
Feels Like 88 °F
N
7
Wind Variable Wind from NNW

Today
High -- | Low -- °F
--% Chance of Precip.
Yesterday
High -- | Low -- °F
Precip. -- in
6:51 AM 8:27 PM
Waning Crescent, 12% visible
Pressure 29.88 in
Visibility 10.0 miles
Clouds Clear
Heat Index 88 °F
Dew Point 68 °F
Humidity 55%
Rainfall 0.00 in
Snow Depth Not available.
UV 9 out of 12
Pollen 10.70 out of 12
Air Quality Not available.
Flu Activity Not available.
METAR KONL 211955Z AUTO 34006KT 10SM CLR 30/20 A2988 RMK AO2 T02970198

More Conditions Fewer Conditions

Pressure 29.88 in
Visibility 10.0 miles
Clouds Clear
Heat Index 88 °F
Dew Point 68 °F
Humidity 55%
Rainfall 0.00 in
Snow Depth Not available.
UV 9 out of 12
Pollen 10.70 out of 12
Air Quality Not available.
Flu Activity Not available.
METAR KONL 211955Z AUTO 34006KT 10SM CLR 30/20 A2988 RMK AO2 T02970198

More Conditions Fewer Conditions

10-Day Weather Forecast

Almanac

Astronomy

Aug. 21, 2014 Rise Set
Actual Time 6:51 AM CDT 8:27 PM CDT
Civil Twilight 6:21 AM CDT 8:56 PM CDT
Nautical Twilight 5:46 AM CDT 9:32 PM CDT
Astronomical Twilight 5:07 AM CDT 10:10 PM CDT
Moon 3:21 AM CDT 5:58 PM CDT
Length of Visible Light 14h 35m
Length of Day
13h 36m
Tomorrow will be 2m 35s shorter.
Waning Crescent, 12% of the Moon is Illuminated
Today
Waning Crescent
Aug 25
New
Sep 2
First Quarter
Sep 8
Full
Sep 15
Last Quarter

Today's Extremes

State Highs State Lows

Community

WunderPhotos

Upload Photos

1,746,011 photos uploaded!

WunderBlogs® & News

Nearby

Snow Depth

Station Depth Elevation
No new snow has been reported.

Earthquake Activity

City Distance Mag. Time & Date
No recent earthquake activity has been reported nearby.
Minimum magnitude displayed is 2.5.

Coastal Water Temperatures

Place Temperature
No Stations Reporting

Nearby Weather Stations